sensor_id;sensor_type;location;lat;lon;timestamp;P1;durP1;ratioP1;P2;durP2;ratioP2
39848;SDS011;25518;47.878;15.914;2023-07-20T00:00:22;6.03;;;2.92;;
39848;SDS011;25518;47.878;15.914;2023-07-20T00:03:12;5.90;;;3.10;;
39848;SDS011;25518;47.878;15.914;2023-07-20T00:06:07;7.07;;;3.80;;
39848;SDS011;25518;47.878;15.914;2023-07-20T00:08:57;8.10;;;3.60;;
39848;SDS011;25518;47.878;15.914;2023-07-20T00:11:49;9.68;;;4.00;;
39848;SDS011;25518;47.878;15.914;2023-07-20T00:14:39;6.80;;;3.25;;
39848;SDS011;25518;47.878;15.914;2023-07-20T00:17:29;5.63;;;2.93;;
39848;SDS011;25518;47.878;15.914;2023-07-20T00:20:18;6.32;;;3.63;;
39848;SDS011;25518;47.878;15.914;2023-07-20T00:23:08;7.80;;;3.20;;
39848;SDS011;25518;47.878;15.914;2023-07-20T00:25:58;7.80;;;3.55;;
39848;SDS011;25518;47.878;15.914;2023-07-20T00:28:49;5.85;;;3.20;;
39848;SDS011;25518;47.878;15.914;2023-07-20T00:31:40;6.53;;;3.47;;
39848;SDS011;25518;47.878;15.914;2023-07-20T00:34:31;7.32;;;3.53;;
39848;SDS011;25518;47.878;15.914;2023-07-20T00:37:20;8.23;;;3.35;;
39848;SDS011;25518;47.878;15.914;2023-07-20T00:40:10;5.18;;;2.90;;
39848;SDS011;25518;47.878;15.914;2023-07-20T00:43:00;7.00;;;3.60;;
39848;SDS011;25518;47.878;15.914;2023-07-20T00:45:49;5.63;;;3.40;;
39848;SDS011;25518;47.878;15.914;2023-07-20T00:48:40;6.10;;;3.22;;
39848;SDS011;25518;47.878;15.914;2023-07-20T00:51:30;6.43;;;3.15;;
39848;SDS011;25518;47.878;15.914;2023-07-20T00:54:20;8.20;;;3.60;;
39848;SDS011;25518;47.878;15.914;2023-07-20T00:57:09;7.15;;;3.38;;
39848;SDS011;25518;47.878;15.914;2023-07-20T01:00:02;5.60;;;2.80;;
39848;SDS011;25518;47.878;15.914;2023-07-20T01:02:53;5.82;;;3.40;;
39848;SDS011;25518;47.878;15.914;2023-07-20T01:05:50;4.60;;;2.77;;
39848;SDS011;25518;47.878;15.914;2023-07-20T01:11:43;6.77;;;2.73;;
39848;SDS011;25518;47.878;15.914;2023-07-20T01:14:43;4.57;;;2.87;;
39848;SDS011;25518;47.878;15.914;2023-07-20T01:17:34;6.22;;;2.58;;
39848;SDS011;25518;47.878;15.914;2023-07-20T01:20:25;6.03;;;2.70;;
39848;SDS011;25518;47.878;15.914;2023-07-20T01:23:28;4.93;;;2.72;;
39848;SDS011;25518;47.878;15.914;2023-07-20T01:26:47;4.55;;;2.53;;
39848;SDS011;25518;47.878;15.914;2023-07-20T01:29:45;4.80;;;2.35;;
39848;SDS011;25518;47.878;15.914;2023-07-20T01:32:42;4.47;;;2.50;;
39848;SDS011;25518;47.878;15.914;2023-07-20T01:35:33;4.63;;;2.67;;
39848;SDS011;25518;47.878;15.914;2023-07-20T01:38:25;4.15;;;2.58;;
39848;SDS011;25518;47.878;15.914;2023-07-20T01:41:15;6.60;;;3.07;;
39848;SDS011;25518;47.878;15.914;2023-07-20T01:44:06;6.90;;;2.92;;
39848;SDS011;25518;47.878;15.914;2023-07-20T01:46:57;5.43;;;2.85;;
39848;SDS011;25518;47.878;15.914;2023-07-20T01:49:47;5.60;;;2.78;;
39848;SDS011;25518;47.878;15.914;2023-07-20T01:52:36;5.33;;;3.00;;
39848;SDS011;25518;47.878;15.914;2023-07-20T01:55:26;4.93;;;2.25;;
39848;SDS011;25518;47.878;15.914;2023-07-20T01:58:16;4.22;;;2.60;;
39848;SDS011;25518;47.878;15.914;2023-07-20T02:01:05;5.45;;;2.50;;
39848;SDS011;25518;47.878;15.914;2023-07-20T02:03:55;4.72;;;2.60;;
39848;SDS011;25518;47.878;15.914;2023-07-20T02:06:45;5.75;;;2.80;;
39848;SDS011;25518;47.878;15.914;2023-07-20T02:09:34;5.35;;;2.72;;
39848;SDS011;25518;47.878;15.914;2023-07-20T02:12:24;5.10;;;2.45;;
39848;SDS011;25518;47.878;15.914;2023-07-20T02:15:14;4.55;;;2.85;;
39848;SDS011;25518;47.878;15.914;2023-07-20T02:18:05;5.07;;;2.93;;
39848;SDS011;25518;47.878;15.914;2023-07-20T02:20:55;4.47;;;2.92;;
39848;SDS011;25518;47.878;15.914;2023-07-20T02:23:44;6.72;;;2.65;;
39848;SDS011;25518;47.878;15.914;2023-07-20T02:26:34;5.38;;;2.80;;
39848;SDS011;25518;47.878;15.914;2023-07-20T02:29:24;5.88;;;2.75;;
39848;SDS011;25518;47.878;15.914;2023-07-20T02:32:13;4.72;;;2.42;;
39848;SDS011;25518;47.878;15.914;2023-07-20T02:35:03;5.75;;;2.72;;
39848;SDS011;25518;47.878;15.914;2023-07-20T02:37:53;5.15;;;2.95;;
39848;SDS011;25518;47.878;15.914;2023-07-20T02:40:43;4.53;;;2.58;;
39848;SDS011;25518;47.878;15.914;2023-07-20T02:43:33;6.40;;;2.80;;
39848;SDS011;25518;47.878;15.914;2023-07-20T02:46:22;4.83;;;2.43;;
39848;SDS011;25518;47.878;15.914;2023-07-20T02:49:12;5.82;;;2.30;;
39848;SDS011;25518;47.878;15.914;2023-07-20T02:52:02;5.70;;;2.60;;
39848;SDS011;25518;47.878;15.914;2023-07-20T02:54:51;3.67;;;2.03;;
39848;SDS011;25518;47.878;15.914;2023-07-20T02:57:40;4.80;;;2.50;;
39848;SDS011;25518;47.878;15.914;2023-07-20T03:00:30;4.25;;;2.33;;
39848;SDS011;25518;47.878;15.914;2023-07-20T03:20:15;5.47;;;2.70;;
39848;SDS011;25518;47.878;15.914;2023-07-20T03:23:05;4.57;;;2.42;;
39848;SDS011;25518;47.878;15.914;2023-07-20T03:25:55;5.45;;;2.60;;
39848;SDS011;25518;47.878;15.914;2023-07-20T03:28:44;5.75;;;2.67;;
39848;SDS011;25518;47.878;15.914;2023-07-20T03:31:34;5.45;;;2.47;;
39848;SDS011;25518;47.878;15.914;2023-07-20T03:34:23;4.00;;;2.45;;
39848;SDS011;25518;47.878;15.914;2023-07-20T03:37:13;4.30;;;2.13;;
39848;SDS011;25518;47.878;15.914;2023-07-20T03:40:02;5.07;;;2.50;;
39848;SDS011;25518;47.878;15.914;2023-07-20T03:42:53;4.53;;;2.33;;
39848;SDS011;25518;47.878;15.914;2023-07-20T03:45:43;4.13;;;2.25;;
39848;SDS011;25518;47.878;15.914;2023-07-20T03:48:34;5.22;;;2.53;;
39848;SDS011;25518;47.878;15.914;2023-07-20T03:51:24;4.72;;;2.10;;
39848;SDS011;25518;47.878;15.914;2023-07-20T03:54:14;5.18;;;2.22;;
39848;SDS011;25518;47.878;15.914;2023-07-20T03:57:04;3.33;;;2.00;;
39848;SDS011;25518;47.878;15.914;2023-07-20T03:59:54;3.50;;;2.00;;
39848;SDS011;25518;47.878;15.914;2023-07-20T04:02:44;4.63;;;2.50;;
39848;SDS011;25518;47.878;15.914;2023-07-20T04:05:34;4.55;;;2.28;;
39848;SDS011;25518;47.878;15.914;2023-07-20T04:08:24;4.88;;;2.50;;
39848;SDS011;25518;47.878;15.914;2023-07-20T04:11:14;5.78;;;2.38;;
39848;SDS011;25518;47.878;15.914;2023-07-20T04:14:04;5.53;;;2.70;;
39848;SDS011;25518;47.878;15.914;2023-07-20T04:16:53;4.33;;;2.30;;
39848;SDS011;25518;47.878;15.914;2023-07-20T04:19:43;5.80;;;2.50;;
39848;SDS011;25518;47.878;15.914;2023-07-20T04:22:33;4.10;;;2.50;;
39848;SDS011;25518;47.878;15.914;2023-07-20T04:25:23;4.63;;;2.53;;
39848;SDS011;25518;47.878;15.914;2023-07-20T04:28:13;4.07;;;2.13;;
39848;SDS011;25518;47.878;15.914;2023-07-20T04:31:10;4.10;;;2.20;;
39848;SDS011;25518;47.878;15.914;2023-07-20T04:34:01;5.30;;;2.40;;
39848;SDS011;25518;47.878;15.914;2023-07-20T04:36:51;6.13;;;2.63;;
39848;SDS011;25518;47.878;15.914;2023-07-20T04:39:41;5.22;;;2.55;;
39848;SDS011;25518;47.878;15.914;2023-07-20T04:42:30;4.65;;;2.45;;
39848;SDS011;25518;47.878;15.914;2023-07-20T04:45:20;6.45;;;2.42;;
39848;SDS011;25518;47.878;15.914;2023-07-20T04:48:12;4.07;;;2.20;;
39848;SDS011;25518;47.878;15.914;2023-07-20T04:51:04;5.32;;;2.50;;
39848;SDS011;25518;47.878;15.914;2023-07-20T04:53:54;5.43;;;2.53;;
39848;SDS011;25518;47.878;15.914;2023-07-20T04:56:44;4.67;;;2.27;;
39848;SDS011;25518;47.878;15.914;2023-07-20T04:59:34;6.30;;;2.08;;
39848;SDS011;25518;47.878;15.914;2023-07-20T05:02:23;4.80;;;2.35;;
39848;SDS011;25518;47.878;15.914;2023-07-20T05:05:13;4.30;;;2.35;;
39848;SDS011;25518;47.878;15.914;2023-07-20T05:08:04;4.43;;;2.23;;
39848;SDS011;25518;47.878;15.914;2023-07-20T05:10:53;4.20;;;2.30;;
39848;SDS011;25518;47.878;15.914;2023-07-20T05:13:43;6.78;;;2.63;;
39848;SDS011;25518;47.878;15.914;2023-07-20T05:16:32;4.07;;;2.38;;
39848;SDS011;25518;47.878;15.914;2023-07-20T05:19:22;4.72;;;2.72;;
39848;SDS011;25518;47.878;15.914;2023-07-20T05:22:15;6.13;;;2.35;;
39848;SDS011;25518;47.878;15.914;2023-07-20T05:25:06;5.72;;;2.58;;
39848;SDS011;25518;47.878;15.914;2023-07-20T05:27:57;5.40;;;2.20;;
39848;SDS011;25518;47.878;15.914;2023-07-20T05:30:46;6.70;;;2.55;;
39848;SDS011;25518;47.878;15.914;2023-07-20T05:33:36;7.50;;;3.17;;
39848;SDS011;25518;47.878;15.914;2023-07-20T05:36:26;5.60;;;3.00;;
39848;SDS011;25518;47.878;15.914;2023-07-20T05:39:16;4.80;;;2.35;;
39848;SDS011;25518;47.878;15.914;2023-07-20T05:42:07;4.53;;;2.42;;
39848;SDS011;25518;47.878;15.914;2023-07-20T05:44:56;4.28;;;2.70;;
39848;SDS011;25518;47.878;15.914;2023-07-20T05:47:46;5.90;;;2.45;;
39848;SDS011;25518;47.878;15.914;2023-07-20T05:50:35;5.10;;;2.30;;
39848;SDS011;25518;47.878;15.914;2023-07-20T05:53:26;6.13;;;2.60;;
39848;SDS011;25518;47.878;15.914;2023-07-20T05:56:15;4.87;;;2.67;;
39848;SDS011;25518;47.878;15.914;2023-07-20T05:59:05;4.57;;;2.25;;
39848;SDS011;25518;47.878;15.914;2023-07-20T06:01:55;5.53;;;2.30;;
39848;SDS011;25518;47.878;15.914;2023-07-20T06:04:45;5.07;;;2.25;;
39848;SDS011;25518;47.878;15.914;2023-07-20T06:07:35;5.13;;;2.20;;
39848;SDS011;25518;47.878;15.914;2023-07-20T06:10:25;4.93;;;2.40;;
39848;SDS011;25518;47.878;15.914;2023-07-20T06:13:15;4.20;;;2.13;;
39848;SDS011;25518;47.878;15.914;2023-07-20T06:16:05;3.47;;;1.85;;
39848;SDS011;25518;47.878;15.914;2023-07-20T06:18:54;4.30;;;1.95;;
39848;SDS011;25518;47.878;15.914;2023-07-20T06:21:44;5.55;;;2.47;;
39848;SDS011;25518;47.878;15.914;2023-07-20T06:24:34;4.57;;;2.33;;
39848;SDS011;25518;47.878;15.914;2023-07-20T06:27:23;5.50;;;1.75;;
39848;SDS011;25518;47.878;15.914;2023-07-20T06:30:13;4.93;;;1.90;;
39848;SDS011;25518;47.878;15.914;2023-07-20T06:33:03;5.35;;;2.13;;
39848;SDS011;25518;47.878;15.914;2023-07-20T06:35:52;3.78;;;2.10;;
39848;SDS011;25518;47.878;15.914;2023-07-20T06:38:42;6.20;;;2.25;;
39848;SDS011;25518;47.878;15.914;2023-07-20T06:41:31;4.97;;;1.90;;
39848;SDS011;25518;47.878;15.914;2023-07-20T06:44:21;5.10;;;1.90;;
39848;SDS011;25518;47.878;15.914;2023-07-20T06:47:11;4.20;;;2.00;;
39848;SDS011;25518;47.878;15.914;2023-07-20T06:50:01;4.60;;;1.80;;
39848;SDS011;25518;47.878;15.914;2023-07-20T06:52:50;5.10;;;1.90;;
39848;SDS011;25518;47.878;15.914;2023-07-20T06:55:41;4.95;;;1.95;;
39848;SDS011;25518;47.878;15.914;2023-07-20T06:58:31;4.00;;;1.80;;
39848;SDS011;25518;47.878;15.914;2023-07-20T07:01:21;3.83;;;1.60;;
39848;SDS011;25518;47.878;15.914;2023-07-20T07:04:10;3.97;;;1.83;;
39848;SDS011;25518;47.878;15.914;2023-07-20T07:07:00;5.73;;;1.97;;
39848;SDS011;25518;47.878;15.914;2023-07-20T07:09:51;2.88;;;1.50;;
39848;SDS011;25518;47.878;15.914;2023-07-20T07:12:41;4.07;;;1.70;;
39848;SDS011;25518;47.878;15.914;2023-07-20T07:15:31;4.45;;;1.85;;
39848;SDS011;25518;47.878;15.914;2023-07-20T07:18:21;4.97;;;1.70;;
39848;SDS011;25518;47.878;15.914;2023-07-20T07:21:10;3.63;;;1.65;;
39848;SDS011;25518;47.878;15.914;2023-07-20T07:24:00;3.70;;;1.85;;
39848;SDS011;25518;47.878;15.914;2023-07-20T07:26:50;3.88;;;1.80;;
39848;SDS011;25518;47.878;15.914;2023-07-20T07:29:39;2.60;;;1.52;;
39848;SDS011;25518;47.878;15.914;2023-07-20T07:32:29;2.83;;;1.52;;
39848;SDS011;25518;47.878;15.914;2023-07-20T07:35:19;4.07;;;1.63;;
39848;SDS011;25518;47.878;15.914;2023-07-20T07:38:08;4.22;;;1.80;;
39848;SDS011;25518;47.878;15.914;2023-07-20T07:40:58;4.22;;;1.52;;
39848;SDS011;25518;47.878;15.914;2023-07-20T07:43:47;3.00;;;1.60;;
39848;SDS011;25518;47.878;15.914;2023-07-20T07:46:37;3.50;;;1.60;;
39848;SDS011;25518;47.878;15.914;2023-07-20T07:49:27;4.68;;;1.60;;
39848;SDS011;25518;47.878;15.914;2023-07-20T07:52:17;4.60;;;1.40;;
39848;SDS011;25518;47.878;15.914;2023-07-20T07:55:07;3.00;;;1.30;;
39848;SDS011;25518;47.878;15.914;2023-07-20T07:57:57;3.60;;;1.50;;
39848;SDS011;25518;47.878;15.914;2023-07-20T08:00:46;2.72;;;1.40;;
39848;SDS011;25518;47.878;15.914;2023-07-20T08:03:36;5.00;;;1.63;;
39848;SDS011;25518;47.878;15.914;2023-07-20T08:06:26;5.32;;;1.30;;
39848;SDS011;25518;47.878;15.914;2023-07-20T08:09:16;2.58;;;1.27;;
39848;SDS011;25518;47.878;15.914;2023-07-20T08:12:06;3.60;;;1.30;;
39848;SDS011;25518;47.878;15.914;2023-07-20T08:14:56;3.17;;;1.40;;
39848;SDS011;25518;47.878;15.914;2023-07-20T08:17:45;2.58;;;1.30;;
39848;SDS011;25518;47.878;15.914;2023-07-20T08:20:37;4.55;;;1.10;;
39848;SDS011;25518;47.878;15.914;2023-07-20T08:23:26;3.93;;;1.60;;
39848;SDS011;25518;47.878;15.914;2023-07-20T08:26:16;2.53;;;1.10;;
39848;SDS011;25518;47.878;15.914;2023-07-20T08:29:06;2.90;;;1.30;;
39848;SDS011;25518;47.878;15.914;2023-07-20T08:31:56;2.95;;;1.40;;
39848;SDS011;25518;47.878;15.914;2023-07-20T08:34:45;2.77;;;1.20;;
39848;SDS011;25518;47.878;15.914;2023-07-20T08:37:35;3.00;;;1.30;;
39848;SDS011;25518;47.878;15.914;2023-07-20T08:40:25;3.17;;;1.05;;
39848;SDS011;25518;47.878;15.914;2023-07-20T08:43:14;2.35;;;1.10;;
39848;SDS011;25518;47.878;15.914;2023-07-20T08:46:05;2.95;;;1.13;;
39848;SDS011;25518;47.878;15.914;2023-07-20T08:48:55;1.93;;;0.97;;
39848;SDS011;25518;47.878;15.914;2023-07-20T08:51:46;2.30;;;1.20;;
39848;SDS011;25518;47.878;15.914;2023-07-20T08:54:37;2.72;;;1.10;;
39848;SDS011;25518;47.878;15.914;2023-07-20T08:57:28;3.53;;;1.40;;
39848;SDS011;25518;47.878;15.914;2023-07-20T09:00:19;2.80;;;1.27;;
39848;SDS011;25518;47.878;15.914;2023-07-20T09:03:09;3.10;;;1.40;;
39848;SDS011;25518;47.878;15.914;2023-07-20T09:06:00;2.90;;;1.27;;
39848;SDS011;25518;47.878;15.914;2023-07-20T09:08:50;2.25;;;1.08;;
39848;SDS011;25518;47.878;15.914;2023-07-20T09:11:40;2.10;;;1.15;;
39848;SDS011;25518;47.878;15.914;2023-07-20T09:14:30;2.95;;;1.17;;
39848;SDS011;25518;47.878;15.914;2023-07-20T09:17:21;3.05;;;1.70;;
39848;SDS011;25518;47.878;15.914;2023-07-20T09:20:15;3.75;;;1.48;;
39848;SDS011;25518;47.878;15.914;2023-07-20T09:23:06;3.35;;;1.23;;
39848;SDS011;25518;47.878;15.914;2023-07-20T09:25:57;2.45;;;1.15;;
39848;SDS011;25518;47.878;15.914;2023-07-20T09:28:48;2.50;;;1.10;;
39848;SDS011;25518;47.878;15.914;2023-07-20T09:31:40;3.53;;;1.30;;
39848;SDS011;25518;47.878;15.914;2023-07-20T09:34:30;3.55;;;1.15;;
39848;SDS011;25518;47.878;15.914;2023-07-20T09:37:21;4.90;;;1.50;;
39848;SDS011;25518;47.878;15.914;2023-07-20T09:40:11;3.03;;;1.38;;
39848;SDS011;25518;47.878;15.914;2023-07-20T09:43:07;3.28;;;1.50;;
39848;SDS011;25518;47.878;15.914;2023-07-20T09:45:58;2.33;;;1.00;;
39848;SDS011;25518;47.878;15.914;2023-07-20T09:48:52;3.17;;;1.20;;
39848;SDS011;25518;47.878;15.914;2023-07-20T09:51:43;4.97;;;1.20;;
39848;SDS011;25518;47.878;15.914;2023-07-20T09:54:36;5.80;;;1.48;;
39848;SDS011;25518;47.878;15.914;2023-07-20T09:57:27;3.92;;;1.30;;
39848;SDS011;25518;47.878;15.914;2023-07-20T10:00:18;5.03;;;1.50;;
39848;SDS011;25518;47.878;15.914;2023-07-20T10:03:08;4.37;;;1.43;;
39848;SDS011;25518;47.878;15.914;2023-07-20T10:06:02;2.47;;;1.30;;
39848;SDS011;25518;47.878;15.914;2023-07-20T10:08:58;3.63;;;1.15;;
39848;SDS011;25518;47.878;15.914;2023-07-20T10:11:52;4.37;;;1.50;;
39848;SDS011;25518;47.878;15.914;2023-07-20T10:14:44;3.25;;;1.58;;
39848;SDS011;25518;47.878;15.914;2023-07-20T10:17:46;4.43;;;1.45;;
39848;SDS011;25518;47.878;15.914;2023-07-20T10:20:59;2.75;;;1.23;;
39848;SDS011;25518;47.878;15.914;2023-07-20T10:23:49;3.58;;;1.45;;
39848;SDS011;25518;47.878;15.914;2023-07-20T10:26:39;3.50;;;1.52;;
39848;SDS011;25518;47.878;15.914;2023-07-20T10:29:28;3.95;;;1.55;;
39848;SDS011;25518;47.878;15.914;2023-07-20T10:32:19;3.55;;;1.30;;
39848;SDS011;25518;47.878;15.914;2023-07-20T10:35:12;4.20;;;1.50;;
39848;SDS011;25518;47.878;15.914;2023-07-20T10:38:03;4.57;;;1.75;;
39848;SDS011;25518;47.878;15.914;2023-07-20T10:40:53;5.57;;;1.60;;
39848;SDS011;25518;47.878;15.914;2023-07-20T10:43:45;2.60;;;1.20;;
39848;SDS011;25518;47.878;15.914;2023-07-20T10:49:29;2.72;;;1.13;;
39848;SDS011;25518;47.878;15.914;2023-07-20T10:52:21;2.83;;;1.30;;
39848;SDS011;25518;47.878;15.914;2023-07-20T10:55:11;1.73;;;1.17;;
39848;SDS011;25518;47.878;15.914;2023-07-20T10:58:06;4.25;;;1.42;;
39848;SDS011;25518;47.878;15.914;2023-07-20T11:01:00;3.92;;;1.25;;
39848;SDS011;25518;47.878;15.914;2023-07-20T11:03:52;3.95;;;1.20;;
39848;SDS011;25518;47.878;15.914;2023-07-20T11:06:54;2.58;;;1.10;;
39848;SDS011;25518;47.878;15.914;2023-07-20T11:09:44;2.53;;;1.05;;
39848;SDS011;25518;47.878;15.914;2023-07-20T11:12:34;3.17;;;1.13;;
39848;SDS011;25518;47.878;15.914;2023-07-20T11:15:23;2.28;;;1.00;;
39848;SDS011;25518;47.878;15.914;2023-07-20T11:18:14;4.35;;;1.10;;
39848;SDS011;25518;47.878;15.914;2023-07-20T11:21:04;2.37;;;0.90;;
39848;SDS011;25518;47.878;15.914;2023-07-20T11:23:58;1.60;;;0.80;;
39848;SDS011;25518;47.878;15.914;2023-07-20T11:26:48;4.07;;;0.98;;
39848;SDS011;25518;47.878;15.914;2023-07-20T11:29:39;2.55;;;0.95;;
39848;SDS011;25518;47.878;15.914;2023-07-20T11:32:28;2.05;;;0.90;;
39848;SDS011;25518;47.878;15.914;2023-07-20T11:35:18;3.13;;;1.45;;
39848;SDS011;25518;47.878;15.914;2023-07-20T11:38:07;1.63;;;1.10;;
39848;SDS011;25518;47.878;15.914;2023-07-20T11:40:57;2.88;;;1.08;;
39848;SDS011;25518;47.878;15.914;2023-07-20T11:43:47;4.85;;;1.27;;
39848;SDS011;25518;47.878;15.914;2023-07-20T11:46:36;3.08;;;1.20;;
39848;SDS011;25518;47.878;15.914;2023-07-20T11:49:25;6.30;;;1.03;;
39848;SDS011;25518;47.878;15.914;2023-07-20T11:52:16;2.03;;;0.90;;
39848;SDS011;25518;47.878;15.914;2023-07-20T11:55:06;4.18;;;1.20;;
39848;SDS011;25518;47.878;15.914;2023-07-20T11:58:01;1.77;;;0.80;;
39848;SDS011;25518;47.878;15.914;2023-07-20T12:00:51;2.27;;;1.00;;
39848;SDS011;25518;47.878;15.914;2023-07-20T12:03:43;1.85;;;0.98;;
39848;SDS011;25518;47.878;15.914;2023-07-20T12:06:33;2.70;;;0.90;;
39848;SDS011;25518;47.878;15.914;2023-07-20T12:09:22;2.15;;;1.10;;
39848;SDS011;25518;47.878;15.914;2023-07-20T12:12:12;2.10;;;0.90;;
39848;SDS011;25518;47.878;15.914;2023-07-20T12:18:11;2.55;;;1.00;;
39848;SDS011;25518;47.878;15.914;2023-07-20T12:21:00;2.33;;;0.70;;
39848;SDS011;25518;47.878;15.914;2023-07-20T12:23:50;1.37;;;0.90;;
39848;SDS011;25518;47.878;15.914;2023-07-20T12:26:40;2.17;;;1.10;;
39848;SDS011;25518;47.878;15.914;2023-07-20T12:29:30;1.95;;;1.02;;
39848;SDS011;25518;47.878;15.914;2023-07-20T12:32:24;2.00;;;0.90;;
39848;SDS011;25518;47.878;15.914;2023-07-20T12:35:14;2.10;;;0.80;;
39848;SDS011;25518;47.878;15.914;2023-07-20T12:38:04;2.47;;;0.88;;
39848;SDS011;25518;47.878;15.914;2023-07-20T12:40:55;3.30;;;1.17;;
39848;SDS011;25518;47.878;15.914;2023-07-20T12:43:45;2.20;;;0.93;;
39848;SDS011;25518;47.878;15.914;2023-07-20T12:46:34;2.30;;;1.05;;
39848;SDS011;25518;47.878;15.914;2023-07-20T12:49:26;4.03;;;1.40;;
39848;SDS011;25518;47.878;15.914;2023-07-20T12:52:16;3.33;;;0.95;;
39848;SDS011;25518;47.878;15.914;2023-07-20T12:55:06;2.58;;;0.93;;
39848;SDS011;25518;47.878;15.914;2023-07-20T12:57:57;1.90;;;0.95;;
39848;SDS011;25518;47.878;15.914;2023-07-20T13:00:47;3.65;;;1.10;;
39848;SDS011;25518;47.878;15.914;2023-07-20T13:03:36;3.63;;;1.02;;
39848;SDS011;25518;47.878;15.914;2023-07-20T13:06:26;2.22;;;1.05;;
39848;SDS011;25518;47.878;15.914;2023-07-20T13:09:16;4.07;;;0.95;;
39848;SDS011;25518;47.878;15.914;2023-07-20T13:12:06;1.92;;;1.10;;
39848;SDS011;25518;47.878;15.914;2023-07-20T13:14:56;2.72;;;1.15;;
39848;SDS011;25518;47.878;15.914;2023-07-20T13:17:49;4.40;;;1.30;;
39848;SDS011;25518;47.878;15.914;2023-07-20T13:20:39;6.00;;;1.23;;
39848;SDS011;25518;47.878;15.914;2023-07-20T13:23:29;2.63;;;1.10;;
39848;SDS011;25518;47.878;15.914;2023-07-20T13:26:19;3.33;;;1.30;;
39848;SDS011;25518;47.878;15.914;2023-07-20T13:29:08;3.53;;;1.00;;
39848;SDS011;25518;47.878;15.914;2023-07-20T13:31:58;2.55;;;1.17;;
39848;SDS011;25518;47.878;15.914;2023-07-20T13:34:48;3.00;;;1.20;;
39848;SDS011;25518;47.878;15.914;2023-07-20T13:37:38;2.65;;;1.02;;
39848;SDS011;25518;47.878;15.914;2023-07-20T13:40:28;2.92;;;1.00;;
39848;SDS011;25518;47.878;15.914;2023-07-20T13:43:17;3.50;;;1.20;;
39848;SDS011;25518;47.878;15.914;2023-07-20T13:46:07;2.53;;;1.02;;
39848;SDS011;25518;47.878;15.914;2023-07-20T13:48:56;3.53;;;1.10;;
39848;SDS011;25518;47.878;15.914;2023-07-20T13:51:46;2.85;;;1.10;;
39848;SDS011;25518;47.878;15.914;2023-07-20T13:54:36;2.88;;;1.20;;
39848;SDS011;25518;47.878;15.914;2023-07-20T13:57:25;4.45;;;1.20;;
39848;SDS011;25518;47.878;15.914;2023-07-20T14:00:15;2.97;;;1.00;;
39848;SDS011;25518;47.878;15.914;2023-07-20T14:03:06;1.60;;;0.90;;
39848;SDS011;25518;47.878;15.914;2023-07-20T14:05:55;1.42;;;1.00;;
39848;SDS011;25518;47.878;15.914;2023-07-20T14:08:45;2.25;;;1.08;;
39848;SDS011;25518;47.878;15.914;2023-07-20T14:11:37;2.72;;;1.20;;
39848;SDS011;25518;47.878;15.914;2023-07-20T14:14:27;4.05;;;1.45;;
39848;SDS011;25518;47.878;15.914;2023-07-20T14:17:17;2.95;;;1.10;;
39848;SDS011;25518;47.878;15.914;2023-07-20T14:20:06;2.60;;;1.10;;
39848;SDS011;25518;47.878;15.914;2023-07-20T14:22:57;2.70;;;1.30;;
39848;SDS011;25518;47.878;15.914;2023-07-20T14:25:47;2.63;;;1.00;;
39848;SDS011;25518;47.878;15.914;2023-07-20T14:28:37;3.00;;;1.33;;
39848;SDS011;25518;47.878;15.914;2023-07-20T14:31:26;4.25;;;1.20;;
39848;SDS011;25518;47.878;15.914;2023-07-20T14:34:16;2.45;;;1.02;;
39848;SDS011;25518;47.878;15.914;2023-07-20T14:37:08;3.28;;;1.10;;
39848;SDS011;25518;47.878;15.914;2023-07-20T14:39:58;3.00;;;1.20;;
39848;SDS011;25518;47.878;15.914;2023-07-20T14:42:48;5.57;;;1.30;;
39848;SDS011;25518;47.878;15.914;2023-07-20T14:45:37;1.97;;;1.07;;
39848;SDS011;25518;47.878;15.914;2023-07-20T14:48:27;3.33;;;1.42;;
39848;SDS011;25518;47.878;15.914;2023-07-20T14:51:17;2.95;;;1.10;;
39848;SDS011;25518;47.878;15.914;2023-07-20T14:54:06;3.88;;;1.52;;
39848;SDS011;25518;47.878;15.914;2023-07-20T14:56:55;4.03;;;1.20;;
39848;SDS011;25518;47.878;15.914;2023-07-20T14:59:46;3.03;;;1.30;;
39848;SDS011;25518;47.878;15.914;2023-07-20T15:02:35;3.40;;;1.30;;
39848;SDS011;25518;47.878;15.914;2023-07-20T15:05:26;2.72;;;1.27;;
39848;SDS011;25518;47.878;15.914;2023-07-20T15:08:15;4.65;;;1.40;;
39848;SDS011;25518;47.878;15.914;2023-07-20T15:11:05;2.45;;;1.17;;
39848;SDS011;25518;47.878;15.914;2023-07-20T15:13:55;2.25;;;1.30;;
39848;SDS011;25518;47.878;15.914;2023-07-20T15:16:45;3.38;;;1.40;;
39848;SDS011;25518;47.878;15.914;2023-07-20T15:19:35;3.28;;;1.40;;
39848;SDS011;25518;47.878;15.914;2023-07-20T15:22:24;3.10;;;1.30;;
39848;SDS011;25518;47.878;15.914;2023-07-20T15:25:14;2.75;;;1.20;;
39848;SDS011;25518;47.878;15.914;2023-07-20T15:28:03;4.32;;;1.30;;
39848;SDS011;25518;47.878;15.914;2023-07-20T15:31:01;3.63;;;1.40;;
39848;SDS011;25518;47.878;15.914;2023-07-20T15:33:52;2.58;;;1.40;;
39848;SDS011;25518;47.878;15.914;2023-07-20T15:36:41;3.80;;;1.40;;
39848;SDS011;25518;47.878;15.914;2023-07-20T15:39:31;3.38;;;1.17;;
39848;SDS011;25518;47.878;15.914;2023-07-20T15:42:20;3.45;;;1.30;;
39848;SDS011;25518;47.878;15.914;2023-07-20T15:45:10;2.72;;;1.27;;
39848;SDS011;25518;47.878;15.914;2023-07-20T15:48:00;2.58;;;1.30;;
39848;SDS011;25518;47.878;15.914;2023-07-20T15:50:49;4.00;;;1.27;;
39848;SDS011;25518;47.878;15.914;2023-07-20T15:53:40;3.00;;;1.20;;
39848;SDS011;25518;47.878;15.914;2023-07-20T15:56:30;2.58;;;1.20;;
39848;SDS011;25518;47.878;15.914;2023-07-20T15:59:19;3.30;;;1.45;;
39848;SDS011;25518;47.878;15.914;2023-07-20T16:02:10;2.23;;;1.30;;
39848;SDS011;25518;47.878;15.914;2023-07-20T16:04:59;2.22;;;1.27;;
39848;SDS011;25518;47.878;15.914;2023-07-20T16:07:49;2.75;;;1.27;;
39848;SDS011;25518;47.878;15.914;2023-07-20T16:10:39;2.25;;;1.10;;
39848;SDS011;25518;47.878;15.914;2023-07-20T16:13:28;2.88;;;1.30;;
39848;SDS011;25518;47.878;15.914;2023-07-20T16:16:18;3.25;;;1.38;;
39848;SDS011;25518;47.878;15.914;2023-07-20T16:19:07;2.67;;;1.50;;
39848;SDS011;25518;47.878;15.914;2023-07-20T16:21:57;3.17;;;1.40;;
39848;SDS011;25518;47.878;15.914;2023-07-20T16:24:47;2.13;;;1.23;;
39848;SDS011;25518;47.878;15.914;2023-07-20T16:27:37;3.90;;;1.40;;
39848;SDS011;25518;47.878;15.914;2023-07-20T16:30:27;3.35;;;1.33;;
39848;SDS011;25518;47.878;15.914;2023-07-20T16:33:17;2.75;;;1.35;;
39848;SDS011;25518;47.878;15.914;2023-07-20T16:36:09;2.95;;;1.35;;
39848;SDS011;25518;47.878;15.914;2023-07-20T16:38:59;2.30;;;1.10;;
39848;SDS011;25518;47.878;15.914;2023-07-20T16:41:49;2.63;;;1.20;;
39848;SDS011;25518;47.878;15.914;2023-07-20T16:44:39;2.50;;;1.20;;
39848;SDS011;25518;47.878;15.914;2023-07-20T16:47:29;4.32;;;1.20;;
39848;SDS011;25518;47.878;15.914;2023-07-20T16:50:18;2.58;;;1.30;;
39848;SDS011;25518;47.878;15.914;2023-07-20T16:53:08;3.38;;;1.55;;
39848;SDS011;25518;47.878;15.914;2023-07-20T16:55:58;2.20;;;1.25;;
39848;SDS011;25518;47.878;15.914;2023-07-20T16:58:48;3.63;;;1.20;;
39848;SDS011;25518;47.878;15.914;2023-07-20T17:01:37;2.58;;;1.08;;
39848;SDS011;25518;47.878;15.914;2023-07-20T17:04:27;2.80;;;1.50;;
39848;SDS011;25518;47.878;15.914;2023-07-20T17:07:17;4.28;;;1.20;;
39848;SDS011;25518;47.878;15.914;2023-07-20T17:10:07;2.65;;;1.30;;
39848;SDS011;25518;47.878;15.914;2023-07-20T17:12:57;3.72;;;1.55;;
39848;SDS011;25518;47.878;15.914;2023-07-20T17:15:47;1.98;;;1.05;;